Oliveira dos Brejinhos, Brazil
Current Conditions -  °F | °C
As of 4:30 AM on Thursday 23 Oct 2014 (Local Time) from SBQV Reporting Station
Drizzle Drizzle  
Wind Chill: 61°   Ceiling: 300
Heat Index: 61°   Visibility: 4mi
Dew Point: 61°   Wind: 12mph
Humidity: 100%   Direction: 120°ESE
Pressure: 30.15"   Gusts: NA
Location:  12.32°S, 42.9°W
Report Text: SBQV 230730Z 12010KT 6000 -DZ OVC003 16/16 Q1021
Loading
Personal Weather Stations






























Interactive Weather Map
Tropical Storm Tracking
New forecast layout! Learn more

10-Day Weather Forecast

Advertisements
Track Severe Weather on mobile